createdAt,value
2023-03-29T00:02:20.248Z,6.55
2023-03-29T00:04:47.636Z,6.53
2023-03-29T00:07:14.883Z,6.60
2023-03-29T00:09:42.680Z,6.17
2023-03-29T00:12:11.634Z,5.82
2023-03-29T00:14:38.895Z,6.43
2023-03-29T00:17:06.594Z,5.95
2023-03-29T00:19:36.844Z,5.65
2023-03-29T00:22:09.275Z,5.60
2023-03-29T00:24:36.841Z,6.15
2023-03-29T00:27:04.894Z,6.07
2023-03-29T00:29:32.612Z,5.47
2023-03-29T00:31:59.883Z,5.88
2023-03-29T00:34:31.301Z,5.67
2023-03-29T00:36:59.273Z,5.60
2023-03-29T00:39:28.156Z,5.75
2023-03-29T00:41:56.192Z,6.20
2023-03-29T00:45:16.020Z,6.13
2023-03-29T00:47:53.619Z,5.47
2023-03-29T00:50:26.501Z,5.57
2023-03-29T00:52:57.515Z,5.75
2023-03-29T00:55:27.849Z,5.55
2023-03-29T00:57:57.926Z,5.72
2023-03-29T01:00:31.989Z,6.17
2023-03-29T01:03:02.379Z,5.78
2023-03-29T01:05:37.760Z,6.15
2023-03-29T01:08:12.443Z,5.82
2023-03-29T01:10:45.971Z,5.40
2023-03-29T01:13:26.440Z,5.50
2023-03-29T01:15:57.716Z,5.75
2023-03-29T01:18:25.253Z,5.32
2023-03-29T01:21:33.252Z,5.60
2023-03-29T01:24:13.432Z,5.45
2023-03-29T01:26:49.089Z,4.87
2023-03-29T01:29:26.044Z,5.75
2023-03-29T01:32:09.210Z,5.50
2023-03-29T01:34:58.711Z,5.38
2023-03-29T01:37:41.488Z,5.80
2023-03-29T01:40:09.138Z,5.47
2023-03-29T01:42:56.369Z,5.80
2023-03-29T01:45:56.300Z,5.72
2023-03-29T01:48:31.299Z,5.60
2023-03-29T01:51:16.675Z,5.75
2023-03-29T01:54:08.116Z,5.77
2023-03-29T01:56:40.133Z,5.63
2023-03-29T01:59:13.548Z,5.47
2023-03-29T02:01:53.129Z,5.43
2023-03-29T02:04:30.697Z,5.57
2023-03-29T02:07:00.845Z,5.80
2023-03-29T02:09:29.911Z,6.00
2023-03-29T02:12:00.983Z,5.50
2023-03-29T02:14:29.629Z,5.82
2023-03-29T02:17:22.049Z,6.53
2023-03-29T02:20:04.919Z,5.80
2023-03-29T02:22:40.316Z,5.38
2023-03-29T02:25:09.548Z,5.97
2023-03-29T02:27:40.201Z,5.85
2023-03-29T02:30:11.339Z,5.63
2023-03-29T02:33:15.999Z,5.80
2023-03-29T02:35:54.689Z,5.65
2023-03-29T02:38:27.865Z,5.45
2023-03-29T02:40:56.720Z,5.75
2023-03-29T02:43:26.134Z,5.57
2023-03-29T02:45:53.744Z,5.20
2023-03-29T02:48:25.708Z,4.93
2023-03-29T02:50:58.028Z,5.40
2023-03-29T02:53:32.880Z,4.97
2023-03-29T02:56:02.404Z,5.50
2023-03-29T02:58:31.785Z,5.37
2023-03-29T03:01:02.432Z,5.10
2023-03-29T03:03:29.843Z,5.38
2023-03-29T03:06:01.806Z,5.20
2023-03-29T03:08:30.355Z,5.50
2023-03-29T03:10:57.480Z,5.80
2023-03-29T03:13:26.248Z,5.28
2023-03-29T03:15:54.272Z,5.60
2023-03-29T03:18:22.296Z,5.30
2023-03-29T03:20:57.279Z,5.45
2023-03-29T03:23:25.131Z,4.80
2023-03-29T03:25:52.986Z,4.93
2023-03-29T03:28:22.168Z,4.63
2023-03-29T03:30:49.741Z,5.28
2023-03-29T03:33:49.148Z,5.50
2023-03-29T03:36:34.738Z,5.30
2023-03-29T03:39:03.848Z,5.20
2023-03-29T03:41:32.744Z,6.05
2023-03-29T03:44:00.592Z,4.93
2023-03-29T03:46:29.686Z,4.72
2023-03-29T03:48:57.788Z,5.37
2023-03-29T03:51:31.425Z,5.45
2023-03-29T03:53:58.727Z,4.15
2023-03-29T03:56:46.082Z,5.18
2023-03-29T03:59:33.702Z,5.13
2023-03-29T04:02:05.859Z,4.97
2023-03-29T04:04:34.507Z,5.53
2023-03-29T04:07:13.285Z,5.63
2023-03-29T04:09:40.329Z,5.10
2023-03-29T04:12:27.568Z,5.20
2023-03-29T04:14:55.568Z,5.07
2023-03-29T04:17:24.521Z,4.53
2023-03-29T04:20:12.802Z,4.18
2023-03-29T04:22:41.376Z,4.70
2023-03-29T04:25:10.542Z,5.22
2023-03-29T04:27:50.524Z,5.30
2023-03-29T04:30:46.044Z,5.90
2023-03-29T04:33:32.083Z,5.95
2023-03-29T04:36:01.008Z,4.75
2023-03-29T04:38:30.241Z,5.55
2023-03-29T04:40:57.307Z,6.10
2023-03-29T04:43:46.800Z,4.57
2023-03-29T04:46:30.372Z,4.32
2023-03-29T04:49:16.794Z,5.00
2023-03-29T04:51:47.972Z,5.10
2023-03-29T04:54:18.232Z,4.43
2023-03-29T04:57:01.950Z,5.22
2023-03-29T04:59:32.402Z,5.10
2023-03-29T05:02:03.180Z,4.60
2023-03-29T05:04:33.199Z,5.18
2023-03-29T05:07:09.738Z,4.27
2023-03-29T05:09:37.623Z,3.90
2023-03-29T05:12:05.441Z,4.90
2023-03-29T05:14:45.864Z,4.63
2023-03-29T05:17:13.495Z,4.47
2023-03-29T05:19:41.005Z,3.97
2023-03-29T05:22:09.089Z,4.25
2023-03-29T05:24:37.643Z,4.13
2023-03-29T05:27:13.614Z,4.70
2023-03-29T05:29:41.979Z,4.35
2023-03-29T05:32:28.234Z,4.70
2023-03-29T05:34:55.921Z,4.47
2023-03-29T05:37:23.265Z,4.50
2023-03-29T05:40:06.190Z,4.60
2023-03-29T05:42:38.751Z,4.45
2023-03-29T05:45:09.248Z,4.03
2023-03-29T05:47:37.071Z,4.20
2023-03-29T05:50:05.762Z,3.80
2023-03-29T05:52:32.877Z,4.65
2023-03-29T05:55:00.008Z,5.00
2023-03-29T05:57:27.686Z,4.40
2023-03-29T05:59:55.284Z,4.15
2023-03-29T06:02:23.413Z,4.55
2023-03-29T06:04:54.177Z,4.60
2023-03-29T06:07:38.498Z,4.38
2023-03-29T06:10:28.939Z,4.07
2023-03-29T06:13:11.027Z,4.60
2023-03-29T06:15:38.826Z,4.68
2023-03-29T06:18:07.549Z,4.07
2023-03-29T06:20:35.907Z,4.65
2023-03-29T06:23:10.124Z,4.50
2023-03-29T06:25:38.181Z,4.65
2023-03-29T06:28:06.146Z,4.43
2023-03-29T06:30:34.479Z,4.80
2023-03-29T06:33:01.731Z,5.07
2023-03-29T06:35:50.186Z,4.93
2023-03-29T06:38:22.018Z,4.40
2023-03-29T06:41:16.968Z,3.90
2023-03-29T06:44:19.392Z,4.07
2023-03-29T06:46:58.296Z,4.40
2023-03-29T06:49:26.412Z,4.20
2023-03-29T06:52:22.831Z,4.57
2023-03-29T06:54:51.044Z,4.57
2023-03-29T06:57:18.885Z,3.72
2023-03-29T06:59:46.711Z,4.38
2023-03-29T07:02:21.653Z,3.40
2023-03-29T07:04:56.366Z,5.65
2023-03-29T07:08:11.367Z,4.90
2023-03-29T07:10:54.108Z,4.43
2023-03-29T07:13:27.768Z,4.53
2023-03-29T07:15:58.669Z,4.27
2023-03-29T07:18:41.871Z,4.30
2023-03-29T07:21:12.771Z,4.20
2023-03-29T07:23:41.224Z,4.40
2023-03-29T07:26:09.239Z,3.80
2023-03-29T07:28:37.775Z,4.60
2023-03-29T07:31:07.803Z,4.00
2023-03-29T07:33:41.031Z,4.10
2023-03-29T07:36:09.796Z,4.93
2023-03-29T07:38:38.013Z,6.13
2023-03-29T07:41:11.973Z,5.03
2023-03-29T07:43:39.286Z,4.43
2023-03-29T07:46:10.157Z,3.88
2023-03-29T07:48:38.907Z,4.50
2023-03-29T07:51:08.629Z,4.78
2023-03-29T07:53:47.642Z,4.50
2023-03-29T07:56:39.396Z,4.25
2023-03-29T07:59:16.704Z,4.60
2023-03-29T08:01:46.489Z,3.90
2023-03-29T08:04:34.063Z,4.03
2023-03-29T08:07:21.603Z,4.47
2023-03-29T08:10:04.424Z,4.22
2023-03-29T08:12:54.507Z,4.25
2023-03-29T08:15:28.919Z,4.50
2023-03-29T08:17:56.105Z,4.55
2023-03-29T08:20:24.722Z,4.80
2023-03-29T08:22:55.359Z,4.60
2023-03-29T08:25:22.463Z,4.18
2023-03-29T08:27:53.688Z,4.45
2023-03-29T08:30:53.729Z,3.92
2023-03-29T08:33:22.344Z,4.60
2023-03-29T08:35:59.116Z,4.70
2023-03-29T08:38:30.533Z,4.60
2023-03-29T08:40:58.023Z,4.30
2023-03-29T08:43:58.123Z,4.45
2023-03-29T08:46:52.386Z,4.83
2023-03-29T08:49:29.329Z,4.68
2023-03-29T08:52:48.517Z,4.28
2023-03-29T08:55:45.478Z,4.40
2023-03-29T08:58:46.875Z,4.78
2023-03-29T09:01:14.569Z,4.00
2023-03-29T09:04:20.271Z,4.72
2023-03-29T09:06:53.180Z,4.68
2023-03-29T09:09:34.036Z,4.90
2023-03-29T09:12:27.514Z,4.93
2023-03-29T09:14:54.607Z,4.63
2023-03-29T09:17:33.705Z,4.63
2023-03-29T09:20:15.386Z,5.10
2023-03-29T09:23:08.942Z,4.85
2023-03-29T09:26:24.720Z,4.57
2023-03-29T09:29:09.007Z,4.27
2023-03-29T09:31:44.915Z,4.30
2023-03-29T09:34:27.882Z,4.65
2023-03-29T09:37:08.927Z,4.22
2023-03-29T09:39:38.831Z,4.40
2023-03-29T09:42:14.307Z,4.67
2023-03-29T09:44:52.829Z,4.82
2023-03-29T09:47:30.249Z,5.10
2023-03-29T09:50:05.110Z,5.43
2023-03-29T09:52:32.945Z,4.75
2023-03-29T09:55:16.172Z,5.37
2023-03-29T09:57:53.000Z,5.38
2023-03-29T10:00:20.775Z,5.20
2023-03-29T10:02:52.907Z,6.03
2023-03-29T10:05:26.579Z,5.93
2023-03-29T10:07:59.911Z,5.70
2023-03-29T10:10:33.207Z,5.85
2023-03-29T10:13:05.608Z,6.25
2023-03-29T10:15:33.411Z,6.30
2023-03-29T10:18:12.633Z,6.65
2023-03-29T10:20:41.284Z,5.90
2023-03-29T10:23:09.422Z,6.35
2023-03-29T10:25:42.953Z,6.07
2023-03-29T10:28:18.861Z,5.57
2023-03-29T10:30:52.824Z,5.63
2023-03-29T10:33:23.233Z,5.33
2023-03-29T10:35:51.284Z,6.45
2023-03-29T10:38:22.048Z,5.88
2023-03-29T10:40:51.900Z,5.10
2023-03-29T10:43:26.834Z,6.03
2023-03-29T10:45:57.433Z,6.33
2023-03-29T10:48:29.978Z,7.57
2023-03-29T10:51:02.194Z,6.40
2023-03-29T10:53:33.049Z,6.53
2023-03-29T10:56:24.675Z,5.88
2023-03-29T10:59:23.329Z,6.70
2023-03-29T11:02:15.515Z,6.55
2023-03-29T11:04:48.331Z,6.40
2023-03-29T11:07:37.303Z,6.50
2023-03-29T11:10:46.142Z,7.50
2023-03-29T11:13:24.967Z,6.33
2023-03-29T11:16:19.868Z,7.20
2023-03-29T11:19:16.362Z,6.35
2023-03-29T11:21:53.997Z,5.65
2023-03-29T11:24:36.124Z,5.63
2023-03-29T11:27:41.610Z,5.97
2023-03-29T11:30:25.742Z,5.80
2023-03-29T11:33:03.085Z,5.63
2023-03-29T11:35:38.974Z,5.30
2023-03-29T11:38:19.361Z,5.15
2023-03-29T11:41:18.991Z,5.00
2023-03-29T11:43:59.474Z,7.38
2023-03-29T11:46:35.562Z,5.75
2023-03-29T11:49:11.277Z,5.90
2023-03-29T11:51:44.291Z,6.97
2023-03-29T11:54:22.420Z,6.33
2023-03-29T11:57:02.547Z,8.18
2023-03-29T11:59:58.976Z,5.57
2023-03-29T12:02:32.310Z,6.10
2023-03-29T12:05:05.428Z,6.68
2023-03-29T12:07:40.179Z,6.20
2023-03-29T12:10:17.547Z,5.55
2023-03-29T12:13:03.128Z,6.82
2023-03-29T12:15:37.203Z,5.40
2023-03-29T12:18:27.314Z,6.33
2023-03-29T12:21:00.337Z,7.10
2023-03-29T12:23:34.769Z,6.50
2023-03-29T12:26:17.144Z,6.20
2023-03-29T12:29:01.132Z,6.50
2023-03-29T12:32:05.605Z,6.00
2023-03-29T12:34:51.904Z,6.13
2023-03-29T12:38:01.144Z,5.18
2023-03-29T12:41:30.658Z,5.70
2023-03-29T12:44:33.229Z,6.00
2023-03-29T12:47:23.949Z,5.55
2023-03-29T12:49:59.564Z,6.00
2023-03-29T12:52:36.840Z,5.32
2023-03-29T12:55:18.072Z,6.15
2023-03-29T12:58:05.656Z,6.10
2023-03-29T13:00:44.893Z,6.22
2023-03-29T13:03:29.363Z,6.10
2023-03-29T13:06:02.706Z,5.68
2023-03-29T13:08:40.342Z,5.28
2023-03-29T13:11:13.641Z,4.65
2023-03-29T13:13:43.206Z,5.05
2023-03-29T13:16:16.526Z,4.47
2023-03-29T13:19:02.438Z,5.00
2023-03-29T13:21:41.607Z,4.30
2023-03-29T13:24:28.055Z,4.95
2023-03-29T13:27:07.350Z,4.93
2023-03-29T13:29:41.616Z,4.60
2023-03-29T13:32:21.942Z,4.60
2023-03-29T13:35:18.484Z,4.32
2023-03-29T13:38:16.512Z,4.30
2023-03-29T13:41:05.098Z,4.78
2023-03-29T13:43:35.247Z,4.30
2023-03-29T13:46:04.070Z,4.78
2023-03-29T13:48:46.706Z,5.05
2023-03-29T13:51:13.673Z,5.03
2023-03-29T13:53:48.065Z,5.32
2023-03-29T13:56:24.810Z,4.50
2023-03-29T13:58:58.199Z,4.85
2023-03-29T14:01:43.954Z,4.70
2023-03-29T14:04:24.341Z,5.55
2023-03-29T14:06:54.649Z,5.03
2023-03-29T14:09:33.397Z,4.77
2023-03-29T14:12:01.321Z,5.43
2023-03-29T14:14:51.641Z,5.35
2023-03-29T14:17:46.579Z,4.88
2023-03-29T14:20:51.595Z,5.47
2023-03-29T14:23:22.940Z,4.30
2023-03-29T14:25:50.597Z,4.60
2023-03-29T14:28:29.002Z,5.55
2023-03-29T14:30:57.288Z,5.32
2023-03-29T14:33:34.614Z,5.60
2023-03-29T14:36:04.369Z,5.00
2023-03-29T14:38:37.824Z,5.68
2023-03-29T14:41:05.213Z,5.90
2023-03-29T14:43:32.573Z,6.00
2023-03-29T14:46:03.067Z,6.00
2023-03-29T14:48:33.279Z,5.90
2023-03-29T14:51:01.544Z,5.50
2023-03-29T14:53:32.055Z,5.97
2023-03-29T14:55:59.766Z,6.00
2023-03-29T14:58:34.026Z,6.10
2023-03-29T15:01:28.017Z,5.77
2023-03-29T15:04:11.744Z,6.50
2023-03-29T15:06:44.382Z,7.10
2023-03-29T15:09:22.877Z,6.45
2023-03-29T15:11:55.285Z,6.22
2023-03-29T15:14:25.104Z,6.83
2023-03-29T15:16:57.006Z,6.97
2023-03-29T15:19:26.270Z,6.38
2023-03-29T15:21:53.437Z,6.32
2023-03-29T15:24:28.020Z,6.78
2023-03-29T15:27:05.663Z,5.87
2023-03-29T15:29:42.049Z,5.35
2023-03-29T15:32:34.873Z,6.20
2023-03-29T15:35:05.164Z,6.00
2023-03-29T15:37:32.973Z,6.97
2023-03-29T15:40:00.320Z,5.93
2023-03-29T15:42:27.607Z,7.32
2023-03-29T15:44:56.404Z,6.60
2023-03-29T15:47:24.294Z,7.00
2023-03-29T15:49:51.943Z,8.05
2023-03-29T15:52:19.148Z,7.07
2023-03-29T15:54:46.502Z,7.45
2023-03-29T15:57:15.993Z,8.15
2023-03-29T15:59:43.999Z,8.60
2023-03-29T16:02:17.647Z,7.25
2023-03-29T16:04:45.039Z,7.83
2023-03-29T16:07:16.104Z,8.25
2023-03-29T16:09:44.242Z,8.57
2023-03-29T16:12:11.323Z,7.72
2023-03-29T16:14:39.134Z,8.40
2023-03-29T16:17:06.584Z,8.80
2023-03-29T16:19:34.453Z,9.70
2023-03-29T16:22:07.277Z,9.73
2023-03-29T16:24:36.098Z,10.48
2023-03-29T16:27:04.228Z,9.40
2023-03-29T16:29:31.442Z,9.10
2023-03-29T16:31:58.795Z,9.65
2023-03-29T16:34:26.320Z,9.80
2023-03-29T16:36:54.211Z,9.57
2023-03-29T16:39:21.794Z,10.20
2023-03-29T16:41:50.351Z,9.60
2023-03-29T16:44:23.933Z,10.07
2023-03-29T16:46:57.764Z,10.38
2023-03-29T16:49:25.149Z,9.52
2023-03-29T16:51:52.322Z,9.02
2023-03-29T16:54:19.344Z,8.73
2023-03-29T16:56:47.123Z,8.93
2023-03-29T16:59:14.494Z,8.77
2023-03-29T17:01:41.637Z,8.00
2023-03-29T17:04:11.852Z,9.57
2023-03-29T17:06:38.913Z,10.10
2023-03-29T17:09:06.252Z,10.07
2023-03-29T17:11:33.566Z,8.93
2023-03-29T17:14:00.860Z,9.15
2023-03-29T17:16:29.361Z,8.32
2023-03-29T17:19:00.514Z,7.73
2023-03-29T17:21:29.410Z,8.07
2023-03-29T17:23:56.697Z,8.00
2023-03-29T17:26:23.831Z,7.63
2023-03-29T17:28:50.939Z,8.20
2023-03-29T17:31:19.575Z,7.63
2023-03-29T17:33:47.551Z,8.27
2023-03-29T17:36:14.780Z,8.48
2023-03-29T17:38:43.156Z,8.55
2023-03-29T17:41:11.198Z,8.43
2023-03-29T17:43:38.251Z,8.07
2023-03-29T17:46:05.938Z,8.05
2023-03-29T17:48:33.504Z,8.25
2023-03-29T17:51:00.980Z,7.50
2023-03-29T17:53:28.030Z,7.82
2023-03-29T17:55:57.808Z,9.20
2023-03-29T17:58:28.292Z,7.88
2023-03-29T18:00:55.820Z,7.53
2023-03-29T18:03:23.064Z,8.00
2023-03-29T18:05:50.473Z,9.55
2023-03-29T18:08:17.537Z,7.90
2023-03-29T18:10:44.650Z,7.05
2023-03-29T18:13:14.276Z,8.40
2023-03-29T18:15:41.616Z,7.88
2023-03-29T18:18:08.948Z,7.93
2023-03-29T18:20:36.334Z,7.93
2023-03-29T18:23:06.285Z,8.50
2023-03-29T18:25:34.821Z,8.65
2023-03-29T18:28:05.232Z,7.95
2023-03-29T18:30:33.254Z,8.77
2023-03-29T18:33:00.727Z,9.23
2023-03-29T18:35:28.126Z,8.35
2023-03-29T18:37:55.470Z,9.02
2023-03-29T18:40:24.979Z,9.63
2023-03-29T18:42:56.257Z,10.32
2023-03-29T18:45:25.011Z,9.63
2023-03-29T18:47:54.940Z,10.80
2023-03-29T18:50:22.831Z,11.30
2023-03-29T18:52:53.579Z,11.82
2023-03-29T18:55:21.106Z,12.38
2023-03-29T18:57:48.590Z,11.90
2023-03-29T19:00:16.018Z,12.68
2023-03-29T19:02:43.258Z,12.65
2023-03-29T19:05:11.506Z,12.20
2023-03-29T19:07:38.672Z,11.50
2023-03-29T19:10:07.295Z,11.83
2023-03-29T19:12:35.640Z,10.32
2023-03-29T19:15:02.993Z,10.73
2023-03-29T19:17:30.939Z,11.07
2023-03-29T19:19:58.107Z,10.18
2023-03-29T19:22:25.386Z,10.40
2023-03-29T19:24:52.468Z,11.73
2023-03-29T19:27:19.594Z,11.30
2023-03-29T19:29:48.206Z,10.45
2023-03-29T19:32:15.649Z,11.23
2023-03-29T19:34:42.700Z,9.80
2023-03-29T19:37:09.706Z,11.43
2023-03-29T19:39:37.055Z,11.95
2023-03-29T19:42:04.332Z,11.57
2023-03-29T19:44:31.735Z,11.07
2023-03-29T19:46:59.327Z,10.90
2023-03-29T19:49:26.510Z,10.75
2023-03-29T19:51:54.974Z,11.15
2023-03-29T19:54:22.056Z,11.75
2023-03-29T19:56:51.930Z,11.18
2023-03-29T19:59:20.305Z,13.70
2023-03-29T20:01:50.894Z,13.52
2023-03-29T20:04:25.185Z,12.88
2023-03-29T20:06:52.262Z,14.02
2023-03-29T20:09:19.299Z,14.50
2023-03-29T20:11:49.075Z,14.23
2023-03-29T20:14:16.221Z,15.52
2023-03-29T20:16:44.305Z,14.50
2023-03-29T20:19:14.095Z,14.68
2023-03-29T20:21:44.045Z,15.45
2023-03-29T20:24:11.613Z,14.50
2023-03-29T20:26:38.722Z,14.70
2023-03-29T20:29:06.399Z,14.73
2023-03-29T20:31:33.494Z,14.35
2023-03-29T20:34:00.716Z,14.63
2023-03-29T20:36:30.831Z,14.37
2023-03-29T20:38:59.407Z,15.07
2023-03-29T20:41:26.752Z,14.02
2023-03-29T20:43:58.970Z,14.15
2023-03-29T20:46:33.671Z,14.27
2023-03-29T20:49:54.278Z,13.97
2023-03-29T20:52:22.862Z,13.75
2023-03-29T20:54:50.590Z,13.50
2023-03-29T20:57:20.977Z,15.00
2023-03-29T20:59:49.407Z,13.27
2023-03-29T21:02:22.267Z,14.30
2023-03-29T21:04:50.844Z,15.23
2023-03-29T21:07:18.656Z,14.57
2023-03-29T21:09:47.379Z,15.65
2023-03-29T21:12:14.403Z,15.93
2023-03-29T21:14:41.739Z,16.50
2023-03-29T21:17:09.552Z,16.70
2023-03-29T21:19:38.903Z,16.80
2023-03-29T21:22:06.330Z,15.63
2023-03-29T21:24:34.069Z,16.13
2023-03-29T21:27:01.415Z,16.50
2023-03-29T21:29:28.520Z,17.25
2023-03-29T21:31:55.985Z,17.63
2023-03-29T21:34:23.051Z,17.63
2023-03-29T21:36:50.696Z,18.20
2023-03-29T21:39:17.849Z,17.43
2023-03-29T21:41:44.890Z,17.85
2023-03-29T21:44:11.977Z,17.65
2023-03-29T21:46:39.164Z,16.33
2023-03-29T21:49:06.171Z,16.45
2023-03-29T21:51:33.214Z,15.10
2023-03-29T21:54:00.357Z,16.02
2023-03-29T21:56:28.278Z,15.45
2023-03-29T21:58:55.377Z,15.02
2023-03-29T22:01:22.397Z,15.45
2023-03-29T22:03:49.510Z,15.70
2023-03-29T22:06:16.525Z,14.57
2023-03-29T22:08:43.520Z,14.57
2023-03-29T22:11:16.655Z,13.45
2023-03-29T22:13:44.474Z,15.23
2023-03-29T22:16:14.118Z,13.70
2023-03-29T22:18:44.362Z,13.27
2023-03-29T22:21:14.557Z,14.10
2023-03-29T22:23:43.001Z,14.30
2023-03-29T22:26:12.375Z,15.18
2023-03-29T22:28:40.582Z,15.50
2023-03-29T22:31:10.633Z,15.65
2023-03-29T22:33:39.527Z,16.30
2023-03-29T22:36:30.723Z,15.70
2023-03-29T22:38:58.051Z,16.45
2023-03-29T22:41:28.328Z,16.70
2023-03-29T22:43:57.819Z,16.70
2023-03-29T22:46:25.517Z,17.20
2023-03-29T22:48:53.444Z,16.33
2023-03-29T22:51:20.917Z,17.77
2023-03-29T22:53:48.310Z,17.53
2023-03-29T22:56:16.537Z,15.82
2023-03-29T22:58:44.491Z,17.35
2023-03-29T23:01:12.242Z,16.98
2023-03-29T23:03:39.363Z,17.50
2023-03-29T23:06:06.758Z,17.07
2023-03-29T23:08:35.125Z,18.45
2023-03-29T23:11:03.477Z,17.92
2023-03-29T23:13:30.808Z,17.27
2023-03-29T23:16:00.314Z,17.33
2023-03-29T23:18:29.662Z,16.30
2023-03-29T23:20:59.058Z,15.30
2023-03-29T23:23:27.662Z,16.00
2023-03-29T23:25:58.340Z,15.25
2023-03-29T23:28:27.664Z,15.43
2023-03-29T23:30:57.093Z,15.27
2023-03-29T23:33:25.914Z,15.80
2023-03-29T23:35:54.657Z,15.60
2023-03-29T23:38:22.028Z,16.17
2023-03-29T23:40:54.248Z,15.80
2023-03-29T23:43:21.427Z,16.40
2023-03-29T23:45:48.545Z,16.73
2023-03-29T23:48:15.538Z,16.38
2023-03-29T23:50:46.385Z,16.95
2023-03-29T23:53:13.405Z,16.35
2023-03-29T23:55:40.420Z,16.50
2023-03-29T23:58:08.034Z,16.27
